| time (UTC) | temp F | wind direction | speed MPH | gust MPH | rain 1hr in | rain 24hr in | rain mn in | humidity % | barometer mb |
| 20260503205003 | 66 | 242 | 7.0 | 14.0 | 0.00 | 0.00 | 0.00 | 65 | 1013.3 |
| 20260503204503 | 66 | 239 | 7.0 | 13.0 | 0.00 | 0.00 | 0.00 | 64 | 1013.3 |
| 20260503204003 | 65 | 232 | 6.0 | 13.0 | 0.00 | 0.00 | 0.00 | 67 | 1013.3 |
| 20260503203503 | 64 | 226 | 6.0 | 13.0 | 0.00 | 0.00 | 0.00 | 67 | 1013.4 |
| 20260503203003 | 64 | 218 | 6.0 | 13.0 | 0.00 | 0.00 | 0.00 | 66 | 1013.4 |
| 20260503202503 | 64 | 215 | 5.0 | 11.0 | 0.00 | 0.00 | 0.00 | 68 | 1013.5 |
| 20260503202003 | 63 | 219 | 6.0 | 13.0 | 0.00 | 0.00 | 0.00 | 67 | 1013.5 |
| 20260503201503 | 62 | 228 | 6.0 | 13.0 | 0.00 | 0.00 | 0.00 | 68 | 1013.6 |
| 20260503201003 | 62 | 223 | 6.0 | 12.0 | 0.00 | 0.00 | 0.00 | 68 | 1013.5 |
| 20260503200524 | 63 | 227 | 5.0 | 13.0 | 0.00 | 0.00 | 0.00 | 68 | 1013.6 |
| 20260503200003 | 63 | 239 | 6.0 | 13.0 | 0.00 | 0.00 | 0.00 | 69 | 1013.6 |
| 20260503195503 | 63 | 227 | 5.0 | 12.0 | 0.00 | 0.00 | 0.00 | 68 | 1013.6 |
| 20260503195003 | 62 | 227 | 5.0 | 10.0 | 0.00 | 0.00 | 0.00 | 69 | 1013.6 |
| 20260503194503 | 62 | 241 | 6.0 | 13.0 | 0.00 | 0.00 | 0.00 | 69 | 1013.6 |
| 20260503194003 | 62 | 246 | 6.0 | 14.0 | 0.00 | 0.00 | 0.00 | 68 | 1013.7 |
| 20260503193503 | 63 | 245 | 5.0 | 14.0 | 0.00 | 0.00 | 0.00 | 69 | 1013.6 |
| 20260503193003 | 63 | 240 | 5.0 | 13.0 | 0.00 | 0.00 | 0.00 | 69 | 1013.7 |
| 20260503192504 | 62 | 243 | 6.0 | 13.0 | 0.00 | 0.00 | 0.00 | 69 | 1013.7 |
| 20260503192024 | 62 | 245 | 6.0 | 12.0 | 0.00 | 0.00 | 0.00 | 70 | 1013.6 |
| 20260503191503 | 62 | 243 | 6.0 | 12.0 | 0.00 | 0.00 | 0.00 | 69 | 1013.7 |
| 20260503191003 | 64 | 237 | 6.0 | 14.0 | 0.00 | 0.00 | 0.00 | 66 | 1013.7 |
| 20260503190503 | 66 | 223 | 5.0 | 14.0 | 0.00 | 0.00 | 0.00 | 65 | 1013.7 |
| 20260503190003 | 66 | 215 | 5.0 | 10.0 | 0.00 | 0.00 | 0.00 | 65 | 1013.7 |
| 20260503185503 | 66 | 219 | 5.0 | 10.0 | 0.00 | 0.00 | 0.00 | 65 | 1013.6 |
| 20260503185003 | 65 | 211 | 5.0 | 10.0 | 0.00 | 0.00 | 0.00 | 67 | 1013.6 |
| 20260503184503 | 64 | 212 | 4.0 | 10.0 | 0.00 | 0.00 | 0.00 | 69 | 1013.6 |
| 20260503184024 | 64 | 225 | 4.0 | 10.0 | 0.00 | 0.00 | 0.00 | 67 | 1013.7 |
| 20260503183524 | 64 | 210 | 4.0 | 11.0 | 0.00 | 0.00 | 0.00 | 67 | 1013.6 |
| 20260503183003 | 64 | 204 | 4.0 | 12.0 | 0.00 | 0.00 | 0.00 | 69 | 1013.5 |
| 20260503182503 | 63 | 222 | 5.0 | 12.0 | 0.00 | 0.00 | 0.00 | 70 | 1013.6 |
| 20260503182003 | 62 | 237 | 5.0 | 12.0 | 0.00 | 0.00 | 0.00 | 69 | 1013.6 |
| 20260503181504 | 64 | 238 | 4.0 | 12.0 | 0.00 | 0.00 | 0.00 | 69 | 1013.6 |
| 20260503181024 | 64 | 233 | 4.0 | 9.0 | 0.00 | 0.00 | 0.00 | 70 | 1013.6 |
| 20260503180503 | 62 | 228 | 5.0 | 13.0 | 0.00 | 0.00 | 0.00 | 72 | 1013.6 |
| 20260503180003 | 62 | 231 | 5.0 | 13.0 | 0.00 | 0.00 | 0.00 | 69 | 1013.5 |
| 20260503175503 | 63 | 221 | 5.0 | 12.0 | 0.00 | 0.00 | 0.00 | 68 | 1013.4 |
| 20260503175003 | 63 | 222 | 6.0 | 12.0 | 0.00 | 0.00 | 0.00 | 68 | 1013.4 |
| 20260503174503 | 63 | 235 | 5.0 | 12.0 | 0.00 | 0.00 | 0.00 | 69 | 1013.5 |
| 20260503174003 | 62 | 228 | 5.0 | 12.0 | 0.00 | 0.00 | 0.00 | 70 | 1013.5 |
| 20260503173503 | 62 | 234 | 5.0 | 12.0 | 0.00 | 0.00 | 0.00 | 72 | 1013.5 |
| 20260503173003 | 61 | 237 | 5.0 | 10.0 | 0.00 | 0.00 | 0.00 | 71 | 1013.6 |
| 20260503172503 | 60 | 229 | 4.0 | 10.0 | 0.00 | 0.00 | 0.00 | 75 | 1013.5 |
| 20260503172003 | 60 | 226 | 4.0 | 10.0 | 0.00 | 0.00 | 0.00 | 74 | 1013.5 |
| 20260503171503 | 60 | 216 | 4.0 | 10.0 | 0.00 | 0.00 | 0.00 | 75 | 1013.5 |
| 20260503171003 | 60 | 199 | 3.0 | 10.0 | 0.00 | 0.00 | 0.00 | 75 | 1013.5 |
| 20260503170503 | 60 | 201 | 3.0 | 10.0 | 0.00 | 0.00 | 0.00 | 76 | 1013.6 |
| 20260503151003 | 54 | 232 | 2.0 | 6.0 | 0.00 | 0.00 | 0.00 | 85 | 1012.9 |
| 20260503150503 | 54 | 242 | 2.0 | 6.0 | 0.00 | 0.00 | 0.00 | 85 | 1012.9 |
| 20260503131003 | 53 | 246 | 2.0 | 8.0 | 0.00 | 0.00 | 0.00 | 85 | 1011.4 |
| 20260503130524 | 53 | 240 | 3.0 | 8.0 | 0.00 | 0.00 | 0.00 | 85 | 1011.4 |
| 20260503110503 | 53 | 245 | 2.0 | 7.0 | 0.00 | 0.00 | 0.00 | 85 | 1011.5 |
| 20260503081503 | 53 | 250 | 3.0 | 7.0 | 0.00 | 0.00 | 0.00 | 84 | 1012.3 |
| 20260503081003 | 53 | 251 | 3.0 | 6.0 | 0.00 | 0.00 | 0.00 | 84 | 1012.3 |
| 20260503080503 | 53 | 244 | 3.0 | 8.0 | 0.00 | 0.00 | 0.00 | 84 | 1012.4 |
| 20260503072524 | 53 | 252 | 2.0 | 7.0 | 0.00 | 0.00 | 0.00 | 84 | 1012.3 |
| 20260503072003 | 53 | 250 | 2.0 | 7.0 | 0.00 | 0.00 | 0.00 | 84 | 1012.3 |
| 20260503071503 | 53 | 249 | 3.0 | 7.0 | 0.00 | 0.00 | 0.00 | 84 | 1012.3 |
| 20260503071003 | 54 | 253 | 2.0 | 7.0 | 0.00 | 0.00 | 0.00 | 84 | 1012.3 |
| 20260503070503 | 54 | 257 | 2.0 | 7.0 | 0.00 | 0.00 | 0.00 | 84 | 1012.3 |
| 20260503055003 | 54 | 243 | 4.0 | 11.0 | 0.00 | 0.00 | 0.00 | 84 | 1012.6 |
| 20260503054503 | 53 | 248 | 3.0 | 9.0 | 0.00 | 0.00 | 0.00 | 84 | 1012.7 |
| 20260503054003 | 54 | 246 | 4.0 | 10.0 | 0.00 | 0.00 | 0.00 | 84 | 1012.7 |
| 20260503053503 | 54 | 244 | 4.0 | 10.0 | 0.00 | 0.00 | 0.00 | 84 | 1012.8 |
| 20260503053024 | 54 | 240 | 5.0 | 12.0 | 0.00 | 0.00 | 0.00 | 84 | 1012.8 |
| 20260503052524 | 54 | 242 | 6.0 | 12.0 | 0.00 | 0.00 | 0.00 | 84 | 1012.7 |
| 20260503052003 | 54 | 245 | 5.0 | 12.0 | 0.00 | 0.00 | 0.00 | 84 | 1012.8 |
| 20260503051503 | 54 | 246 | 6.0 | 15.0 | 0.00 | 0.00 | 0.00 | 84 | 1012.8 |
| 20260503051003 | 54 | 246 | 6.0 | 15.0 | 0.00 | 0.00 | 0.00 | 84 | 1012.7 |
| 20260503050503 | 54 | 243 | 6.0 | 12.0 | 0.00 | 0.00 | 0.00 | 84 | 1012.7 |
| 20260503050003 | 54 | 242 | 5.0 | 12.0 | 0.00 | 0.00 | 0.00 | 84 | 1012.8 |
| 20260503045503 | 54 | 240 | 5.0 | 10.0 | 0.00 | 0.00 | 0.00 | 84 | 1012.7 |
| 20260503045003 | 54 | 239 | 6.0 | 11.0 | 0.00 | 0.00 | 0.00 | 84 | 1012.8 |
| 20260503044503 | 54 | 242 | 6.0 | 15.0 | 0.00 | 0.00 | 0.00 | 84 | 1012.8 |
| 20260503044024 | 54 | 245 | 5.0 | 15.0 | 0.00 | 0.00 | 0.00 | 84 | 1012.7 |
| 20260503043503 | 54 | 244 | 5.0 | 12.0 | 0.00 | 0.00 | 0.00 | 84 | 1012.6 |
| 20260503043003 | 54 | 241 | 5.0 | 11.0 | 0.00 | 0.00 | 0.00 | 83 | 1012.6 |
| 20260503042524 | 54 | 241 | 4.0 | 11.0 | 0.00 | 0.00 | 0.00 | 83 | 1012.7 |
| 20260503042024 | 54 | 239 | 5.0 | 11.0 | 0.00 | 0.00 | 0.00 | 83 | 1012.6 |
| 20260503041503 | 54 | 240 | 5.0 | 13.0 | 0.00 | 0.00 | 0.00 | 83 | 1012.6 |
| 20260503041003 | 54 | 237 | 4.0 | 12.0 | 0.00 | 0.00 | 0.00 | 83 | 1012.5 |
| 20260503040524 | 54 | 239 | 3.0 | 12.0 | 0.00 | 0.00 | 0.00 | 83 | 1012.6 |
| 20260503040003 | 54 | 244 | 4.0 | 12.0 | 0.00 | 0.00 | 0.00 | 83 | 1012.5 |
| 20260503035503 | 54 | 243 | 4.0 | 11.0 | 0.00 | 0.00 | 0.00 | 83 | 1012.5 |
| 20260503035003 | 54 | 248 | 4.0 | 11.0 | 0.00 | 0.00 | 0.00 | 83 | 1012.5 |
| 20260503034503 | 54 | 245 | 4.0 | 9.0 | 0.00 | 0.00 | 0.00 | 83 | 1012.5 |
| 20260503034024 | 54 | 238 | 5.0 | 12.0 | 0.00 | 0.00 | 0.00 | 83 | 1012.4 |
| 20260503033503 | 54 | 238 | 4.0 | 12.0 | 0.00 | 0.00 | 0.00 | 83 | 1012.2 |
| 20260503033003 | 54 | 242 | 5.0 | 12.0 | 0.00 | 0.00 | 0.00 | 83 | 1012.2 |
| 20260503032503 | 54 | 247 | 5.0 | 12.0 | 0.00 | 0.00 | 0.00 | 83 | 1012.2 |
| 20260503032003 | 54 | 246 | 5.0 | 13.0 | 0.00 | 0.00 | 0.00 | 83 | 1012.0 |
| 20260503031503 | 54 | 242 | 5.0 | 13.0 | 0.00 | 0.00 | 0.00 | 83 | 1011.9 |
| 20260503031024 | 54 | 241 | 4.0 | 13.0 | 0.00 | 0.00 | 0.00 | 83 | 1011.8 |
| 20260503030503 | 54 | 240 | 5.0 | 11.0 | 0.00 | 0.00 | 0.00 | 83 | 1011.8 |
| 20260503030024 | 54 | 238 | 6.0 | 15.0 | 0.00 | 0.00 | 0.00 | 83 | 1011.8 |
| 20260503025524 | 54 | 240 | 6.0 | 15.0 | 0.00 | 0.00 | 0.00 | 83 | 1011.7 |
| 20260503025003 | 54 | 237 | 6.0 | 13.0 | 0.00 | 0.00 | 0.00 | 83 | 1011.7 |
| 20260503024503 | 54 | 235 | 6.0 | 13.0 | 0.00 | 0.00 | 0.00 | 83 | 1011.7 |
| 20260503024024 | 54 | 238 | 6.0 | 13.0 | 0.00 | 0.00 | 0.00 | 83 | 1011.7 |
| 20260503023503 | 54 | 240 | 5.0 | 13.0 | 0.00 | 0.00 | 0.00 | 83 | 1011.7 |
| 20260503023003 | 54 | 246 | 6.0 | 13.0 | 0.00 | 0.00 | 0.00 | 83 | 1011.8 |
| 20260503022503 | 54 | 251 | 7.0 | 14.0 | 0.00 | 0.00 | 0.00 | 82 | 1011.8 |
| 20260503022003 | 54 | 252 | 6.0 | 14.0 | 0.00 | 0.00 | 0.00 | 82 | 1011.7 |
| 20260503021503 | 54 | 252 | 6.0 | 12.0 | 0.00 | 0.00 | 0.00 | 82 | 1011.7 |
| 20260503021003 | 54 | 249 | 5.0 | 11.0 | 0.00 | 0.00 | 0.00 | 82 | 1011.8 |
| 20260503020503 | 55 | 245 | 5.0 | 11.0 | 0.00 | 0.00 | 0.00 | 82 | 1011.9 |
| 20260503020024 | 55 | 250 | 5.0 | 12.0 | 0.00 | 0.00 | 0.00 | 81 | 1011.8 |
| 20260503015503 | 55 | 253 | 6.0 | 16.0 | 0.00 | 0.00 | 0.00 | 81 | 1011.9 |
| 20260503015003 | 55 | 244 | 7.0 | 16.0 | 0.00 | 0.00 | 0.00 | 81 | 1011.9 |
| 20260503014503 | 55 | 236 | 6.0 | 11.0 | 0.00 | 0.00 | 0.00 | 81 | 1011.9 |
| 20260503014003 | 55 | 245 | 6.0 | 11.0 | 0.00 | 0.00 | 0.00 | 80 | 1012.0 |
| 20260503013503 | 55 | 244 | 6.0 | 11.0 | 0.00 | 0.00 | 0.00 | 80 | 1012.0 |
| 20260503013003 | 56 | 242 | 5.0 | 11.0 | 0.00 | 0.00 | 0.00 | 80 | 1012.1 |
| 20260503012503 | 56 | 249 | 6.0 | 14.0 | 0.00 | 0.00 | 0.00 | 80 | 1012.0 |
| 20260503012003 | 56 | 246 | 5.0 | 14.0 | 0.00 | 0.00 | 0.00 | 79 | 1012.1 |
| 20260503011503 | 56 | 251 | 4.0 | 9.0 | 0.00 | 0.00 | 0.00 | 79 | 1012.1 |
| 20260503011024 | 56 | 253 | 6.0 | 14.0 | 0.00 | 0.00 | 0.00 | 79 | 1012.1 |
| 20260503010503 | 56 | 250 | 7.0 | 14.0 | 0.00 | 0.00 | 0.00 | 79 | 1012.1 |
| 20260503010003 | 56 | 242 | 7.0 | 14.0 | 0.00 | 0.00 | 0.00 | 78 | 1012.1 |
| 20260503005503 | 56 | 237 | 6.0 | 14.0 | 0.00 | 0.00 | 0.00 | 78 | 1012.1 |
| 20260503005003 | 57 | 237 | 5.0 | 13.0 | 0.00 | 0.00 | 0.00 | 78 | 1012.1 |
| 20260503004503 | 57 | 242 | 5.0 | 12.0 | 0.00 | 0.00 | 0.00 | 78 | 1012.1 |
| 20260503004024 | 57 | 246 | 5.0 | 12.0 | 0.00 | 0.00 | 0.00 | 77 | 1012.2 |
| 20260503003503 | 57 | 249 | 5.0 | 13.0 | 0.00 | 0.00 | 0.00 | 78 | 1012.2 |
| 20260503003003 | 57 | 249 | 6.0 | 13.0 | 0.00 | 0.00 | 0.00 | 77 | 1012.2 |
| 20260503002503 | 57 | 246 | 6.0 | 12.0 | 0.00 | 0.00 | 0.00 | 77 | 1012.2 |
| 20260503002003 | 57 | 242 | 5.0 | 14.0 | 0.00 | 0.00 | 0.00 | 77 | 1012.2 |
| 20260503001503 | 58 | 244 | 5.0 | 14.0 | 0.00 | 0.00 | 0.00 | 77 | 1012.3 |
| 20260503001003 | 57 | 245 | 7.0 | 15.0 | 0.00 | 0.00 | 0.00 | 76 | 1012.3 |
| 20260503000503 | 57 | 244 | 7.0 | 15.0 | 0.00 | 0.00 | 0.00 | 75 | 1012.4 |
| 20260503000003 | 58 | 249 | 6.0 | 15.0 | 0.00 | 0.00 | 0.00 | 76 | 1012.5 |
| 20260502235503 | 58 | 249 | 6.0 | 15.0 | 0.00 | 0.00 | 0.00 | 76 | 1012.5 |
| 20260502235003 | 58 | 237 | 5.0 | 14.0 | 0.00 | 0.00 | 0.00 | 75 | 1012.3 |
| 20260502234502 | 58 | 235 | 5.0 | 14.0 | 0.00 | 0.00 | 0.00 | 74 | 1012.5 |
| 20260502234002 | 59 | 244 | 5.0 | 13.0 | 0.00 | 0.00 | 0.00 | 75 | 1012.5 |
| 20260502233503 | 58 | 241 | 6.0 | 13.0 | 0.00 | 0.00 | 0.00 | 75 | 1012.6 |
| 20260502233003 | 58 | 240 | 5.0 | 11.0 | 0.00 | 0.00 | 0.00 | 76 | 1012.7 |
| 20260502232503 | 58 | 245 | 6.0 | 13.0 | 0.00 | 0.00 | 0.00 | 75 | 1012.7 |
| 20260502232003 | 58 | 242 | 7.0 | 13.0 | 0.00 | 0.00 | 0.00 | 74 | 1012.8 |
| 20260502231503 | 59 | 235 | 6.0 | 13.0 | 0.00 | 0.00 | 0.00 | 74 | 1012.9 |
| 20260502231003 | 59 | 238 | 5.0 | 13.0 | 0.00 | 0.00 | 0.00 | 74 | 1012.8 |
| 20260502230524 | 59 | 248 | 6.0 | 14.0 | 0.00 | 0.00 | 0.00 | 74 | 1012.9 |
| 20260502230002 | 60 | 243 | 6.0 | 14.0 | 0.00 | 0.00 | 0.00 | 72 | 1013.0 |
| 20260502225503 | 60 | 231 | 5.0 | 15.0 | 0.00 | 0.00 | 0.00 | 73 | 1013.0 |
| 20260502225003 | 60 | 240 | 6.0 | 15.0 | 0.00 | 0.00 | 0.00 | 73 | 1013.1 |
| 20260502224502 | 60 | 245 | 6.0 | 12.0 | 0.00 | 0.00 | 0.00 | 75 | 1013.2 |
| 20260502224023 | 59 | 243 | 6.0 | 15.0 | 0.00 | 0.00 | 0.00 | 74 | 1013.2 |
| 20260502222503 | 59 | 233 | 6.0 | 13.0 | 0.00 | 0.00 | 0.00 | 74 | 1013.5 |
| 20260502222003 | 59 | 224 | 5.0 | 13.0 | 0.00 | 0.00 | 0.00 | 74 | 1013.6 |
| 20260502221503 | 59 | 221 | 5.0 | 12.0 | 0.00 | 0.00 | 0.00 | 74 | 1013.6 |
| 20260502221024 | 59 | 225 | 5.0 | 12.0 | 0.00 | 0.00 | 0.00 | 75 | 1013.7 |
| 20260502220503 | 59 | 224 | 5.0 | 12.0 | 0.00 | 0.00 | 0.00 | 74 | 1013.7 |
| 20260502220024 | 59 | 224 | 5.0 | 12.0 | 0.00 | 0.00 | 0.00 | 75 | 1013.7 |
| 20260502215503 | 59 | 221 | 6.0 | 11.0 | 0.00 | 0.00 | 0.00 | 75 | 1013.8 |
| 20260502215024 | 58 | 209 | 6.0 | 12.0 | 0.00 | 0.00 | 0.00 | 75 | 1013.9 |
| 20260502214503 | 58 | 221 | 6.0 | 12.0 | 0.00 | 0.00 | 0.00 | 75 | 1013.8 |
| 20260502214003 | 58 | 240 | 5.0 | 14.0 | 0.00 | 0.00 | 0.00 | 74 | 1013.9 |
| 20260502213503 | 58 | 248 | 6.0 | 14.0 | 0.00 | 0.00 | 0.00 | 74 | 1013.9 |
| 20260502213003 | 58 | 247 | 6.0 | 14.0 | 0.00 | 0.00 | 0.00 | 73 | 1013.9 |
| 20260502212503 | 59 | 244 | 5.0 | 14.0 | 0.00 | 0.00 | 0.00 | 72 | 1013.9 |
| 20260502212004 | 60 | 239 | 5.0 | 15.0 | 0.00 | 0.00 | 0.00 | 71 | 1013.9 |
| 20260502211524 | 60 | 237 | 6.0 | 15.0 | 0.00 | 0.00 | 0.00 | 71 | 1013.9 |
| 20260502211003 | 60 | 236 | 6.0 | 13.0 | 0.00 | 0.00 | 0.00 | 71 | 1014.0 |
| 20260502210503 | 60 | 238 | 6.0 | 13.0 | 0.00 | 0.00 | 0.00 | 71 | 1014.0 |
| 20260502210003 | 60 | 243 | 7.0 | 13.0 | 0.00 | 0.00 | 0.00 | 71 | 1014.1 |
| 20260502205524 | 60 | 244 | 6.0 | 13.0 | 0.00 | 0.00 | 0.00 | 69 | 1014.2 |